Time;durP1;ratioP1;P1;durP2;ratioP2;P2;SDS_P1;SDS_P2;PMS_P1;PMS_P2;Temp;Humidity;BMP_temperature;BMP_pressure;BME280_temperature;BME280_humidity;BME280_pressure;Samples;Min_cycle;Max_cycle;Signal;HPM_P1;HPM_P2
2023/01/22 00:01:07;;;;;;;6.35;4.57;;;1.60;87.40;;;;;;5035022;28;20053;-44
2023/01/22 00:03:38;;;;;;;8.82;4.20;;;1.60;87.60;;;;;;5029373;28;20038;-43
2023/01/22 00:06:05;;;;;;;7.85;3.83;;;1.70;87.70;;;;;;5016920;28;20077;-42
2023/01/22 00:08:35;;;;;;;6.07;4.30;;;1.70;87.70;;;;;;5016467;28;20065;-42
2023/01/22 00:11:02;;;;;;;;;;;1.60;87.10;;;;;;5029335;28;20091;-41
2023/01/22 00:13:29;;;;;;;6.55;3.58;;;1.60;86.90;;;;;;5032501;28;19913;-45
2023/01/22 00:15:59;;;;;;;7.57;3.83;;;1.70;86.50;;;;;;5035747;28;20112;-47
2023/01/22 00:18:25;;;;;;;;;;;1.70;86.70;;;;;;5036876;28;20029;-43
2023/01/22 00:20:53;;;;;;;6.43;3.97;;;1.70;86.00;;;;;;5036353;28;19905;-46
2023/01/22 00:23:20;;;;;;;5.43;3.40;;;1.70;85.70;;;;;;5036812;28;20037;-43
2023/01/22 00:25:47;;;;;;;8.00;4.55;;;1.70;86.00;;;;;;5018036;28;20034;-42
2023/01/22 00:28:15;;;;;;;5.05;3.17;;;1.70;86.20;;;;;;5016239;28;20018;-42
2023/01/22 00:30:41;;;;;;;4.82;3.08;;;1.70;86.30;;;;;;5035112;28;20059;-44
2023/01/22 00:33:08;;;;;;;6.45;4.00;;;1.70;86.10;;;;;;5024118;28;20033;-42
2023/01/22 00:35:35;;;;;;;6.25;3.70;;;1.70;86.00;;;;;;5016772;28;20122;-44
2023/01/22 00:38:02;;;;;;;8.52;3.53;;;1.70;86.30;;;;;;5015708;28;20113;-42
2023/01/22 00:40:29;;;;;;;6.20;3.28;;;1.70;86.40;;;;;;5003943;28;20021;-43
2023/01/22 00:42:57;;;;;;;5.85;2.97;;;1.70;86.80;;;;;;5034985;28;20121;-45
2023/01/22 00:45:22;;;;;;;5.90;3.05;;;1.70;86.40;;;;;;5022085;28;20037;-43
2023/01/22 00:47:50;;;;;;;6.68;2.60;;;1.70;86.30;;;;;;5035628;28;20739;-43
2023/01/22 00:50:17;;;;;;;6.95;3.65;;;1.70;86.60;;;;;;5035478;28;20017;-48
2023/01/22 00:52:44;;;;;;;4.70;3.50;;;1.60;86.60;;;;;;5031191;28;20053;-43
2023/01/22 00:55:12;;;;;;;5.75;3.08;;;1.60;86.50;;;;;;5015428;28;20033;-46
2023/01/22 00:57:38;;;;;;;4.13;2.53;;;1.60;86.30;;;;;;5002259;28;20038;-42
2023/01/22 01:00:06;;;;;;;5.45;3.45;;;1.60;86.20;;;;;;5027463;28;20038;-44
2023/01/22 01:03:25;;;;;;;5.75;2.90;;;1.60;86.10;;;;;;5016398;28;20340;-44
2023/01/22 01:05:25;;;;;;;9.65;3.20;;;1.50;85.80;;;;;;5015708;28;20046;-42
2023/01/22 01:07:52;;;;;;;6.32;3.95;;;1.50;86.00;;;;;;5015242;28;20080;-42
2023/01/22 01:10:18;;;;;;;6.82;3.85;;;1.50;86.40;;;;;;5015509;28;20104;-42
2023/01/22 01:12:45;;;;;;;5.55;3.08;;;1.50;86.50;;;;;;5016052;28;20399;-45
2023/01/22 01:15:12;;;;;;;5.18;3.50;;;1.50;86.00;;;;;;5029712;28;20038;-43
2023/01/22 01:17:45;;;;;;;6.60;3.67;;;1.40;85.90;;;;;;5034959;28;20510;-42
2023/01/22 01:20:12;;;;;;;5.18;3.00;;;1.40;86.10;;;;;;5035808;28;20029;-42
2023/01/22 01:22:39;;;;;;;5.70;2.70;;;1.40;85.50;;;;;;5016970;28;20026;-43
2023/01/22 01:25:06;;;;;;;5.15;2.70;;;1.30;85.80;;;;;;5014813;28;20026;-43
2023/01/22 01:27:33;;;;;;;6.43;2.42;;;1.30;85.60;;;;;;5015917;28;20088;-43
2023/01/22 01:29:59;;;;;;;5.85;2.95;;;1.30;85.90;;;;;;5032150;28;20350;-42
2023/01/22 01:32:26;;;;;;;6.10;3.75;;;1.40;86.50;;;;;;5014551;28;20918;-44
2023/01/22 01:34:53;;;;;;;7.15;3.38;;;1.40;86.90;;;;;;5022015;28;20033;-45
2023/01/22 01:37:19;;;;;;;6.93;3.25;;;1.40;86.80;;;;;;5031434;28;20042;-43
2023/01/22 01:39:51;;;;;;;6.15;3.60;;;1.40;86.80;;;;;;5015445;28;20057;-43
2023/01/22 01:42:33;;;;;;;7.75;3.60;;;1.40;86.80;;;;;;5015256;28;20384;-45
2023/01/22 01:45:36;;;;;;;7.90;3.40;;;1.40;87.10;;;;;;5027193;28;20422;-43
2023/01/22 01:48:29;;;;;;;5.63;3.17;;;1.40;86.80;;;;;;5033942;28;20100;-47
2023/01/22 01:51:29;;;;;;;7.03;3.25;;;1.30;86.30;;;;;;5035258;28;20025;-43
2023/01/22 01:53:58;;;;;;;6.05;3.78;;;1.30;86.10;;;;;;5018682;28;20034;-43
2023/01/22 01:56:34;;;;;;;6.68;3.53;;;1.30;86.20;;;;;;5015410;28;20348;-44
2023/01/22 01:59:09;;;;;;;6.25;3.08;;;1.30;86.00;;;;;;5024193;28;20026;-44
2023/01/22 02:01:36;;;;;;;5.82;3.80;;;1.20;86.30;;;;;;5034213;28;20051;-42
2023/01/22 02:04:03;;;;;;;9.05;3.67;;;1.30;86.60;;;;;;5033751;28;20411;-44
2023/01/22 02:06:30;;;;;;;6.00;3.22;;;1.30;86.90;;;;;;5032217;28;20045;-42
2023/01/22 02:08:59;;;;;;;6.28;3.63;;;1.30;86.80;;;;;;5014915;28;20726;-44
2023/01/22 02:11:27;;;;;;;7.18;3.38;;;1.30;86.50;;;;;;5026250;28;20351;-43
2023/01/22 02:14:07;;;;;;;7.50;3.55;;;1.30;86.60;;;;;;5023895;28;20064;-43
2023/01/22 02:16:34;;;;;;;6.15;3.15;;;1.30;86.30;;;;;;5029632;28;20033;-44
2023/01/22 02:19:00;;;;;;;7.53;3.67;;;1.30;86.20;;;;;;5014855;28;21729;-44
2023/01/22 02:21:39;;;;;;;5.68;4.20;;;1.20;86.30;;;;;;5027499;28;20072;-47
2023/01/22 02:24:24;;;;;;;5.35;3.42;;;1.20;86.30;;;;;;5029948;28;20712;-42
2023/01/22 02:26:50;;;;;;;6.90;2.92;;;1.30;86.50;;;;;;5014908;28;20513;-45
2023/01/22 02:29:17;;;;;;;5.90;3.72;;;1.30;86.40;;;;;;5022733;28;20042;-42
2023/01/22 02:31:44;;;;;;;7.43;4.15;;;1.30;86.60;;;;;;5034918;28;20696;-42
2023/01/22 02:34:11;;;;;;;9.57;3.53;;;1.30;86.60;;;;;;5014862;28;20057;-43
2023/01/22 02:36:41;;;;;;;5.13;3.47;;;1.30;86.60;;;;;;5014511;28;20103;-42
2023/01/22 02:39:08;;;;;;;9.23;4.10;;;1.20;86.70;;;;;;5014657;28;20017;-43
2023/01/22 02:41:35;;;;;;;8.68;4.05;;;1.20;86.70;;;;;;5014342;28;20021;-42
2023/01/22 02:44:02;;;;;;;4.60;3.42;;;1.20;86.60;;;;;;5016605;28;20112;-44
2023/01/22 02:46:33;;;;;;;7.15;4.15;;;1.20;86.70;;;;;;5021869;28;20030;-44
2023/01/22 02:49:00;;;;;;;9.75;3.97;;;1.20;86.70;;;;;;5013357;28;20141;-48
2023/01/22 02:51:30;;;;;;;5.82;3.67;;;1.20;86.70;;;;;;5014219;28;20030;-44
2023/01/22 02:54:01;;;;;;;4.95;3.30;;;1.20;86.50;;;;;;5014192;28;20113;-42
2023/01/22 02:56:27;;;;;;;7.00;5.32;;;1.20;86.80;;;;;;5016773;28;20033;-44
2023/01/22 02:58:55;;;;;;;6.82;3.88;;;1.20;86.80;;;;;;5032209;28;20034;-45
2023/01/22 03:01:23;;;;;;;5.15;4.15;;;1.20;86.40;;;;;;5028320;28;20432;-45
2023/01/22 03:04:00;;;;;;;5.63;4.25;;;1.20;86.40;;;;;;5012970;28;20053;-44
2023/01/22 03:06:28;;;;;;;8.60;5.13;;;1.20;86.80;;;;;;5027673;28;20053;-43
2023/01/22 03:08:57;;;;;;;10.05;4.55;;;1.20;87.20;;;;;;5033701;28;20056;-44
2023/01/22 03:11:26;;;;;;;9.40;4.72;;;1.20;87.20;;;;;;5016202;28;20095;-43
2023/01/22 03:22:14;;;;;;;6.50;4.18;;;1.10;86.90;;;;;;5013940;28;20083;-43
2023/01/22 03:24:42;;;;;;;8.50;4.57;;;1.20;87.10;;;;;;5012962;28;20117;-44
2023/01/22 03:27:09;;;;;;;7.75;3.70;;;1.10;86.90;;;;;;5013525;28;20109;-44
2023/01/22 03:29:37;;;;;;;5.50;3.47;;;1.10;86.50;;;;;;5021990;28;20029;-45
2023/01/22 03:32:05;;;;;;;7.07;4.40;;;1.10;86.60;;;;;;5033719;28;20033;-45
2023/01/22 03:34:32;;;;;;;6.78;4.00;;;1.20;86.70;;;;;;5023049;28;20033;-46
2023/01/22 03:36:59;;;;;;;6.13;4.07;;;1.20;87.20;;;;;;5013673;28;20022;-46
2023/01/22 03:39:26;;;;;;;7.00;4.53;;;1.20;87.20;;;;;;5013352;28;20038;-43
2023/01/22 03:41:53;;;;;;;6.65;4.22;;;1.20;86.80;;;;;;5014326;28;20067;-43
2023/01/22 03:44:22;;;;;;;8.02;4.60;;;1.20;86.90;;;;;;5025515;28;20091;-46
2023/01/22 03:46:49;;;;;;;5.30;3.85;;;1.20;86.80;;;;;;5013359;28;20033;-46
2023/01/22 03:49:16;;;;;;;7.38;4.00;;;1.20;86.90;;;;;;5013231;28;20034;-45
2023/01/22 03:51:44;;;;;;;6.93;4.70;;;1.20;86.90;;;;;;5013488;28;20018;-43
2023/01/22 03:54:15;;;;;;;7.95;4.38;;;1.30;87.10;;;;;;5012402;28;20032;-43
2023/01/22 03:56:42;;;;;;;6.53;4.05;;;1.20;87.00;;;;;;5013787;28;20048;-44
2023/01/22 03:59:13;;;;;;;5.63;3.30;;;1.20;87.10;;;;;;5031849;28;20025;-43
2023/01/22 04:01:49;;;;;;;5.05;3.13;;;1.20;86.80;;;;;;5013927;28;20658;-44
2023/01/22 04:04:15;;;;;;;6.47;3.75;;;1.20;86.70;;;;;;5012850;28;20443;-44
2023/01/22 04:06:42;;;;;;;5.80;4.05;;;1.20;86.60;;;;;;5012524;28;20034;-44
2023/01/22 04:09:09;;;;;;;6.00;3.60;;;1.20;86.60;;;;;;5013171;28;20038;-45
2023/01/22 04:11:35;;;;;;;7.43;4.05;;;1.20;86.80;;;;;;5014497;28;20108;-43
2023/01/22 04:14:05;;;;;;;5.32;3.30;;;1.20;86.60;;;;;;5033043;28;20037;-43
2023/01/22 04:16:34;;;;;;;6.15;3.28;;;1.20;86.80;;;;;;5033091;28;20033;-44
2023/01/22 04:19:03;;;;;;;6.53;4.13;;;1.20;87.10;;;;;;5032865;28;20125;-45
2023/01/22 04:21:30;;;;;;;7.07;4.03;;;1.20;87.40;;;;;;5027695;28;20057;-44
2023/01/22 04:23:58;;;;;;;5.15;3.65;;;1.20;87.20;;;;;;5012992;28;20112;-47
2023/01/22 04:26:25;;;;;;;5.03;3.30;;;1.20;87.10;;;;;;5015172;28;20161;-45
2023/01/22 04:28:52;;;;;;;6.47;4.15;;;1.10;87.00;;;;;;5027406;28;20116;-44
2023/01/22 04:31:17;;;;;;;10.35;4.30;;;1.10;86.90;;;;;;5013221;28;20029;-46
2023/01/22 04:33:45;;;;;;;7.55;4.05;;;1.00;86.60;;;;;;5013001;28;20026;-44
2023/01/22 04:36:11;;;;;;;6.40;3.83;;;1.00;86.60;;;;;;5012824;28;20522;-44
2023/01/22 04:38:38;;;;;;;4.70;3.50;;;1.00;86.40;;;;;;5012106;28;20486;-43
2023/01/22 04:41:06;;;;;;;8.60;3.85;;;1.00;86.50;;;;;;5026243;28;20104;-43
2023/01/22 04:43:33;;;;;;;5.43;3.80;;;1.00;86.70;;;;;;5031527;28;20427;-48
2023/01/22 04:46:01;;;;;;;5.78;3.50;;;1.00;86.60;;;;;;5017671;28;20348;-45
2023/01/22 04:48:28;;;;;;;6.85;3.95;;;0.90;86.50;;;;;;5015743;28;20036;-45
2023/01/22 04:50:55;;;;;;;8.30;4.00;;;0.90;86.50;;;;;;5016508;28;20440;-44
2023/01/22 04:53:20;;;;;;;7.72;3.90;;;0.90;86.20;;;;;;5016372;28;20450;-44
2023/01/22 04:55:47;;;;;;;5.60;4.03;;;1.00;86.20;;;;;;5029968;28;20053;-44
2023/01/22 04:58:14;;;;;;;12.35;6.55;;;0.90;86.00;;;;;;5018680;28;20040;-44
2023/01/22 05:00:43;;;;;;;5.45;4.07;;;0.90;86.00;;;;;;5035926;28;20044;-44
2023/01/22 05:03:12;;;;;;;4.38;3.50;;;0.90;86.10;;;;;;5033938;28;20033;-46
2023/01/22 05:05:39;;;;;;;6.18;4.03;;;0.90;86.50;;;;;;5023423;28;20045;-44
2023/01/22 05:08:05;;;;;;;7.00;5.00;;;0.90;86.60;;;;;;5028409;28;20034;-44
2023/01/22 05:10:32;;;;;;;7.30;5.45;;;0.90;86.90;;;;;;5023951;28;20045;-44
2023/01/22 05:13:02;;;;;;;6.82;4.25;;;0.90;87.10;;;;;;5035904;28;20029;-44
2023/01/22 05:15:30;;;;;;;7.93;4.68;;;0.90;87.10;;;;;;5017770;28;20037;-45
2023/01/22 05:17:57;;;;;;;8.15;4.75;;;0.90;87.30;;;;;;5016115;28;20029;-44
2023/01/22 05:20:24;;;;;;;6.38;5.15;;;0.90;87.20;;;;;;5015924;28;20034;-44
2023/01/22 05:22:54;;;;;;;5.90;4.68;;;0.90;87.30;;;;;;5015060;28;20062;-48
2023/01/22 05:25:21;;;;;;;8.02;5.22;;;0.90;87.30;;;;;;5016446;28;20038;-46
2023/01/22 05:27:48;;;;;;;6.07;4.45;;;0.90;87.30;;;;;;5035774;28;20366;-46
2023/01/22 05:30:15;;;;;;;7.50;5.38;;;0.90;87.50;;;;;;5030316;28;20070;-44
2023/01/22 05:32:42;;;;;;;9.77;4.95;;;0.90;87.50;;;;;;5015719;28;20371;-44
2023/01/22 05:35:08;;;;;;;9.52;6.13;;;0.90;87.50;;;;;;5015487;28;20021;-44
2023/01/22 05:37:35;;;;;;;9.63;5.78;;;0.90;87.00;;;;;;5015326;28;20481;-45
2023/01/22 05:40:04;;;;;;;9.65;5.53;;;0.90;86.70;;;;;;5032864;28;20447;-44
2023/01/22 05:42:31;;;;;;;8.02;6.10;;;0.90;86.70;;;;;;5035451;28;20075;-43
2023/01/22 05:44:58;;;;;;;9.23;5.68;;;0.90;86.70;;;;;;5030029;28;20038;-44
2023/01/22 05:47:25;;;;;;;8.57;5.45;;;0.90;86.90;;;;;;5024625;28;20363;-47
2023/01/22 05:49:52;;;;;;;7.00;5.00;;;0.90;87.10;;;;;;5035375;28;20112;-43
2023/01/22 05:52:17;;;;;;;8.10;5.40;;;0.90;87.30;;;;;;5034308;28;20044;-44
2023/01/22 05:54:43;;;;;;;7.70;6.05;;;0.90;87.40;;;;;;5033502;28;20439;-45
2023/01/22 05:57:10;;;;;;;7.90;5.20;;;0.90;87.30;;;;;;5029694;28;20455;-44
2023/01/22 05:59:37;;;;;;;6.97;5.03;;;0.90;87.20;;;;;;5015340;28;20388;-43
2023/01/22 06:02:06;;;;;;;11.32;5.50;;;0.90;87.00;;;;;;5034957;28;20021;-45
2023/01/22 06:04:32;;;;;;;11.98;5.72;;;0.90;87.10;;;;;;5034595;28;20042;-43
2023/01/22 06:06:57;;;;;;;10.55;6.13;;;0.90;87.10;;;;;;5035018;28;20787;-45
2023/01/22 06:09:24;;;;;;;6.88;5.95;;;0.90;86.90;;;;;;5033213;28;20032;-45
2023/01/22 06:11:51;;;;;;;10.63;5.60;;;0.90;86.90;;;;;;5035103;28;20407;-46
2023/01/22 06:14:21;;;;;;;7.55;6.18;;;0.90;86.80;;;;;;5033854;28;20036;-47
2023/01/22 06:16:47;;;;;;;7.20;6.20;;;0.90;86.70;;;;;;5035019;28;20048;-44
2023/01/22 06:19:14;;;;;;;8.57;5.78;;;0.90;86.60;;;;;;5030392;28;20616;-44
2023/01/22 06:21:42;;;;;;;7.30;5.25;;;0.90;86.20;;;;;;5034470;28;20458;-43
2023/01/22 06:24:08;;;;;;;8.60;6.50;;;0.90;86.00;;;;;;5023625;28;20463;-44
2023/01/22 06:26:33;;;;;;;8.50;6.32;;;0.90;86.10;;;;;;5034255;28;20119;-44
2023/01/22 06:29:00;;;;;;;7.82;6.10;;;0.90;86.30;;;;;;5028501;28;20049;-44
2023/01/22 06:31:27;;;;;;;8.82;6.82;;;0.90;86.30;;;;;;5014631;28;20073;-44
2023/01/22 06:33:54;;;;;;;9.18;5.97;;;0.90;86.20;;;;;;5013662;28;20030;-45
2023/01/22 06:36:21;;;;;;;8.77;6.47;;;0.90;86.30;;;;;;5014400;28;20026;-44
2023/01/22 06:38:48;;;;;;;7.47;5.40;;;0.90;86.50;;;;;;5017827;28;20036;-44
2023/01/22 06:41:15;;;;;;;9.52;5.75;;;1.00;86.80;;;;;;5025108;28;20108;-44
2023/01/22 06:43:43;;;;;;;8.75;5.68;;;1.00;86.90;;;;;;5017163;28;20049;-44
2023/01/22 06:46:09;;;;;;;7.85;5.47;;;0.90;86.70;;;;;;5028660;28;20060;-45
2023/01/22 06:48:36;;;;;;;10.05;6.15;;;0.90;86.90;;;;;;5014524;28;20037;-44
2023/01/22 06:51:03;;;;;;;9.73;6.65;;;0.90;86.90;;;;;;5014370;28;20081;-44
2023/01/22 06:53:29;;;;;;;13.98;6.22;;;0.90;87.00;;;;;;5014184;28;20054;-45
2023/01/22 06:55:59;;;;;;;7.97;5.63;;;0.90;87.20;;;;;;5033289;28;20033;-44
2023/01/22 06:58:26;;;;;;;;;;;0.90;87.10;;;;;;5020251;28;20044;-44
2023/01/22 07:00:58;;;;;;;8.63;6.68;;;0.90;87.20;;;;;;5014322;28;19959;-43
2023/01/22 07:03:25;;;;;;;12.40;6.20;;;0.90;87.20;;;;;;5013976;28;20073;-44
2023/01/22 07:06:03;;;;;;;9.10;6.45;;;0.90;87.50;;;;;;5013796;28;20466;-44
2023/01/22 07:08:32;;;;;;;7.82;6.35;;;0.90;87.50;;;;;;5015770;28;20112;-44
2023/01/22 07:10:59;;;;;;;8.25;6.78;;;0.90;87.30;;;;;;5018886;28;20109;-44
2023/01/22 07:13:26;;;;;;;7.70;5.60;;;0.90;87.00;;;;;;5014125;28;20034;-44
2023/01/22 07:15:53;;;;;;;14.82;6.03;;;0.90;87.10;;;;;;5014009;28;20018;-44
2023/01/22 07:18:20;;;;;;;9.77;6.78;;;0.90;87.30;;;;;;5022086;28;20048;-44
2023/01/22 07:20:47;;;;;;;14.43;12.93;;;0.90;87.30;;;;;;5033793;28;20022;-44
2023/01/22 07:23:14;;;;;;;15.25;11.05;;;0.90;87.10;;;;;;5030047;28;20029;-45
2023/01/22 07:25:41;;;;;;;10.18;9.10;;;0.90;87.30;;;;;;5029149;28;20052;-44
2023/01/22 07:28:09;;;;;;;10.13;7.63;;;0.80;87.40;;;;;;5033538;28;20080;-44
2023/01/22 07:30:37;;;;;;;12.73;11.43;;;0.90;87.30;;;;;;5029197;28;20026;-45
2023/01/22 07:33:04;;;;;;;10.32;7.55;;;0.80;87.10;;;;;;5029797;28;20017;-45
2023/01/22 07:35:31;;;;;;;9.50;7.15;;;0.80;87.10;;;;;;5019750;28;20038;-44
2023/01/22 07:38:03;;;;;;;11.52;9.32;;;0.90;87.10;;;;;;5013699;28;20037;-45
2023/01/22 07:40:32;;;;;;;11.30;7.53;;;0.90;87.20;;;;;;5026136;28;20025;-45
2023/01/22 07:42:59;;;;;;;12.40;8.57;;;0.80;87.10;;;;;;5033298;28;20029;-44
2023/01/22 07:45:26;;;;;;;8.80;6.78;;;0.80;86.90;;;;;;5016672;28;20026;-44
2023/01/22 07:48:10;;;;;;;9.13;6.93;;;0.80;86.80;;;;;;5012629;28;20030;-45
2023/01/22 07:50:39;;;;;;;8.23;6.20;;;0.80;86.70;;;;;;5012602;28;20399;-45
2023/01/22 07:53:06;;;;;;;8.13;6.60;;;0.80;86.60;;;;;;5012669;28;20384;-46
2023/01/22 07:55:36;;;;;;;23.15;17.85;;;0.80;86.70;;;;;;5029466;28;20346;-44
2023/01/22 07:58:05;;;;;;;33.97;23.80;;;0.80;86.70;;;;;;5016323;28;20037;-47
2023/01/22 08:00:34;;;;;;;22.38;16.70;;;0.80;86.70;;;;;;5014744;28;20414;-44
2023/01/22 08:03:05;;;;;;;17.52;13.38;;;0.80;86.50;;;;;;5028713;28;20033;-45
2023/01/22 08:05:32;;;;;;;10.82;8.80;;;0.80;86.60;;;;;;5032237;28;20053;-46
2023/01/22 08:07:59;;;;;;;9.52;7.65;;;0.90;86.70;;;;;;5032117;28;20022;-44
2023/01/22 08:10:25;;;;;;;9.23;6.43;;;0.90;86.60;;;;;;5029834;28;20032;-44
2023/01/22 08:12:52;;;;;;;8.13;6.82;;;0.90;86.50;;;;;;5032949;28;20105;-45
2023/01/22 08:15:18;;;;;;;8.98;6.70;;;0.90;86.50;;;;;;5028040;28;20799;-44
2023/01/22 08:17:48;;;;;;;33.40;25.65;;;1.00;86.50;;;;;;5012202;28;20038;-44
2023/01/22 08:20:15;;;;;;;29.70;21.98;;;0.90;86.60;;;;;;5015600;28;20438;-44
2023/01/22 08:22:42;;;;;;;12.18;10.05;;;1.00;86.70;;;;;;5027349;28;20064;-47
2023/01/22 08:25:09;;;;;;;8.60;6.38;;;1.00;86.70;;;;;;5034397;28;20498;-44
2023/01/22 08:27:35;;;;;;;10.05;6.45;;;1.00;86.50;;;;;;5036682;28;20117;-45
2023/01/22 08:30:04;;;;;;;8.82;5.55;;;1.00;86.50;;;;;;5035673;28;20025;-46
2023/01/22 08:32:33;;;;;;;9.30;6.18;;;1.10;86.60;;;;;;5036417;28;20021;-45
2023/01/22 08:35:00;;;;;;;10.57;8.95;;;1.10;86.40;;;;;;5024857;28;20038;-45
2023/01/22 08:37:27;;;;;;;10.52;7.63;;;1.10;86.50;;;;;;5016712;28;20114;-44
2023/01/22 08:39:53;;;;;;;57.28;31.63;;;1.20;86.30;;;;;;5020685;28;20041;-45
2023/01/22 08:42:20;;;;;;;62.03;33.33;;;1.20;86.10;;;;;;5027394;28;20030;-44
2023/01/22 08:44:47;;;;;;;29.15;16.45;;;1.20;86.40;;;;;;5016535;28;20026;-45
2023/01/22 08:47:13;;;;;;;27.83;16.25;;;1.20;86.60;;;;;;4999564;28;20029;-45
2023/01/22 08:49:40;;;;;;;48.88;25.88;;;1.20;86.70;;;;;;5016727;28;20030;-45
2023/01/22 08:52:08;;;;;;;52.58;30.30;;;1.30;86.80;;;;;;5016522;28;20359;-46
2023/01/22 08:54:33;;;;;;;71.03;39.05;;;1.40;86.50;;;;;;5020046;28;20046;-46
2023/01/22 08:57:00;;;;;;;57.65;31.98;;;1.40;86.20;;;;;;5016670;28;20057;-44
2023/01/22 08:59:29;;;;;;;56.53;33.70;;;1.40;86.30;;;;;;5024154;28;20038;-43
2023/01/22 09:01:58;;;;;;;33.13;21.08;;;1.40;86.50;;;;;;5029507;28;20532;-46
2023/01/22 09:04:24;;;;;;;45.72;26.23;;;1.40;86.40;;;;;;5035664;28;20108;-45
2023/01/22 09:06:51;;;;;;;94.30;43.80;;;1.40;86.70;;;;;;5030739;28;20197;-45
2023/01/22 09:09:18;;;;;;;30.08;15.80;;;1.40;86.80;;;;;;5016457;28;20022;-44
2023/01/22 09:11:45;;;;;;;95.28;49.28;;;1.40;86.70;;;;;;5034207;28;20079;-44
2023/01/22 09:14:12;;;;;;;62.53;35.33;;;1.50;86.60;;;;;;5035889;28;20465;-45
2023/01/22 09:16:39;;;;;;;96.68;50.10;;;1.50;87.00;;;;;;5034984;28;20030;-44
2023/01/22 09:19:06;;;;;;;59.97;30.98;;;1.50;86.70;;;;;;5016217;28;20026;-45
2023/01/22 09:21:36;;;;;;;45.40;24.40;;;1.50;86.70;;;;;;5016010;28;20329;-45
2023/01/22 09:24:04;;;;;;;18.83;10.18;;;1.60;86.70;;;;;;5016449;28;20030;-44
2023/01/22 09:26:33;;;;;;;17.20;13.30;;;1.70;86.50;;;;;;5031786;28;20475;-44
2023/01/22 09:29:02;;;;;;;;;;;1.70;86.90;;;;;;5034904;28;20022;-44
2023/01/22 09:31:33;;;;;;;8.88;5.10;;;1.70;86.50;;;;;;5025549;28;19909;-45
2023/01/22 09:34:00;;;;;;;9.88;6.47;;;1.70;86.70;;;;;;5035537;28;20439;-45
2023/01/22 09:36:28;;;;;;;7.30;5.78;;;1.70;86.80;;;;;;5017615;28;20034;-45
2023/01/22 09:38:57;;;;;;;7.90;5.25;;;1.90;86.90;;;;;;5015811;28;20029;-46
2023/01/22 09:41:43;;;;;;;9.60;5.78;;;1.90;86.80;;;;;;5031594;28;20061;-45
2023/01/22 09:44:39;;;;;;;6.88;5.35;;;1.90;86.50;;;;;;5031378;28;20128;-44
2023/01/22 09:47:13;;;;;;;7.43;5.15;;;1.90;86.70;;;;;;5033647;28;20362;-44
2023/01/22 09:49:52;;;;;;;8.13;4.95;;;2.00;86.60;;;;;;5035099;28;20033;-45
2023/01/22 09:52:23;;;;;;;11.07;7.03;;;1.90;86.30;;;;;;5029891;28;20033;-45
2023/01/22 09:54:50;;;;;;;6.18;4.80;;;1.90;86.50;;;;;;5016727;28;20133;-45
2023/01/22 09:57:17;;;;;;;40.38;23.65;;;2.00;86.70;;;;;;5033940;28;20409;-46
2023/01/22 09:59:50;;;;;;;66.25;38.47;;;2.00;86.70;;;;;;5021570;28;20026;-45
2023/01/22 10:02:40;;;;;;;70.00;40.17;;;2.10;87.00;;;;;;5015314;28;20091;-46
2023/01/22 10:05:31;;;;;;;20.83;17.27;;;2.20;86.80;;;;;;5013665;28;20058;-46
2023/01/22 10:08:22;;;;;;;12.38;8.00;;;2.20;86.70;;;;;;5014972;28;20084;-44
2023/01/22 10:10:51;;;;;;;8.23;5.28;;;2.20;86.70;;;;;;5026111;28;20458;-46
2023/01/22 10:13:27;;;;;;;9.63;5.22;;;2.20;86.80;;;;;;5034825;28;20022;-45
2023/01/22 10:15:55;;;;;;;9.55;4.47;;;2.20;86.70;;;;;;5034820;28;20036;-45
2023/01/22 10:18:46;;;;;;;8.85;4.35;;;2.30;86.50;;;;;;5034926;28;20454;-45
2023/01/22 10:21:30;;;;;;;8.60;5.07;;;2.40;86.50;;;;;;5033203;28;20639;-44
2023/01/22 10:23:57;;;;;;;7.88;4.10;;;2.40;86.50;;;;;;5029151;28;20029;-47
2023/01/22 10:27:07;;;;;;;5.80;3.65;;;2.40;86.50;;;;;;5034617;28;20037;-45
2023/01/22 10:29:37;;;;;;;11.10;6.07;;;2.40;86.30;;;;;;5013880;28;20061;-45
2023/01/22 10:32:27;;;;;;;8.88;4.43;;;2.40;86.40;;;;;;5014859;28;20033;-44
2023/01/22 10:35:05;;;;;;;8.70;4.30;;;2.40;86.50;;;;;;5022824;28;20024;-45
2023/01/22 10:37:44;;;;;;;6.85;4.88;;;2.50;86.70;;;;;;5017868;28;20030;-44
2023/01/22 10:40:49;;;;;;;8.15;5.43;;;2.50;86.50;;;;;;5023133;28;20105;-47
2023/01/22 10:43:18;;;;;;;10.40;4.63;;;2.60;86.30;;;;;;5013532;28;20038;-45
2023/01/22 10:46:14;;;;;;;8.65;4.55;;;2.70;86.30;;;;;;5033638;28;20348;-45
2023/01/22 10:48:42;;;;;;;9.65;4.35;;;2.70;86.10;;;;;;5031862;28;20562;-47
2023/01/22 10:51:18;;;;;;;13.35;9.35;;;2.80;85.70;;;;;;5031942;28;20328;-49
2023/01/22 10:53:54;;;;;;;12.38;7.05;;;2.70;85.70;;;;;;5025095;28;20501;-46
2023/01/22 10:56:39;;;;;;;7.20;5.18;;;2.70;85.90;;;;;;5025931;28;20069;-47
2023/01/22 10:59:21;;;;;;;8.38;5.00;;;2.60;86.10;;;;;;5033944;28;20538;-45
2023/01/22 11:01:58;;;;;;;9.82;4.60;;;2.60;86.50;;;;;;5030474;28;20030;-45
2023/01/22 11:04:29;;;;;;;8.23;4.60;;;2.60;86.40;;;;;;5013806;28;20452;-47
2023/01/22 11:07:14;;;;;;;7.78;4.57;;;2.50;86.30;;;;;;5013687;28;20121;-45
2023/01/22 11:10:10;;;;;;;14.73;4.97;;;2.50;86.60;;;;;;5023215;28;20101;-45
2023/01/22 11:12:44;;;;;;;9.32;4.60;;;2.50;86.60;;;;;;5019103;28;20463;-45
2023/01/22 11:15:52;;;;;;;11.90;4.90;;;2.60;86.60;;;;;;5031218;28;20037;-46
2023/01/22 11:18:56;;;;;;;8.57;4.10;;;2.50;86.70;;;;;;5013860;28;20026;-47
2023/01/22 11:21:31;;;;;;;6.53;3.67;;;2.50;86.70;;;;;;5016260;28;20061;-46
2023/01/22 11:24:18;;;;;;;7.75;4.07;;;2.60;87.00;;;;;;5015081;28;20038;-45
2023/01/22 11:26:55;;;;;;;10.70;4.35;;;2.60;86.70;;;;;;5023138;28;20029;-45
2023/01/22 11:29:33;;;;;;;10.65;5.03;;;2.60;86.70;;;;;;5013822;28;20037;-45
2023/01/22 11:32:36;;;;;;;7.47;4.47;;;2.70;86.50;;;;;;5013853;28;20032;-45
2023/01/22 11:35:16;;;;;;;8.25;4.57;;;2.70;86.60;;;;;;5013604;28;20026;-46
2023/01/22 11:38:09;;;;;;;7.50;4.22;;;2.70;86.50;;;;;;5013575;28;20451;-46
2023/01/22 11:40:47;;;;;;;8.15;4.65;;;2.70;86.50;;;;;;5029634;28;20077;-45
2023/01/22 11:43:36;;;;;;;10.32;4.65;;;2.80;86.60;;;;;;5015514;28;20352;-45
2023/01/22 11:46:33;;;;;;;12.52;5.07;;;2.80;86.50;;;;;;5012400;28;20029;-45
2023/01/22 11:49:10;;;;;;;8.70;4.80;;;2.80;86.60;;;;;;5012489;28;20033;-46
2023/01/22 11:52:25;;;;;;;7.05;4.93;;;2.70;86.30;;;;;;5021902;28;20087;-45
2023/01/22 11:55:23;;;;;;;10.43;4.95;;;2.70;86.70;;;;;;5032258;28;20032;-45
2023/01/22 11:58:20;;;;;;;7.25;4.18;;;2.60;86.90;;;;;;5013100;28;20095;-45
2023/01/22 12:01:13;;;;;;;7.32;4.60;;;2.70;86.90;;;;;;5013416;28;20030;-46
2023/01/22 12:04:01;;;;;;;9.50;4.70;;;2.60;86.80;;;;;;5015369;28;20034;-46
2023/01/22 12:06:41;;;;;;;12.27;4.85;;;2.60;87.10;;;;;;5029322;28;20087;-46
2023/01/22 12:09:44;;;;;;;8.80;4.30;;;2.70;87.00;;;;;;5031264;28;20413;-45
2023/01/22 12:12:40;;;;;;;10.38;6.70;;;2.70;87.20;;;;;;5031929;28;20499;-45
2023/01/22 12:15:25;;;;;;;36.05;21.42;;;2.70;86.80;;;;;;5021286;28;20471;-45
2023/01/22 12:18:17;;;;;;;42.72;27.88;;;2.70;86.70;;;;;;5013399;28;20021;-45
2023/01/22 12:21:22;;;;;;;11.75;4.72;;;2.70;86.90;;;;;;5026509;28;20124;-46
2023/01/22 12:23:57;;;;;;;9.02;5.07;;;2.80;86.70;;;;;;5025212;28;20052;-46
2023/01/22 12:26:29;;;;;;;7.80;4.63;;;2.70;86.40;;;;;;5031382;28;20410;-44
2023/01/22 12:29:39;;;;;;;13.77;4.72;;;2.70;86.50;;;;;;5027909;28;20029;-46
2023/01/22 12:32:24;;;;;;;10.55;4.90;;;2.70;86.60;;;;;;5012292;28;20030;-46
2023/01/22 12:35:06;;;;;;;8.50;4.68;;;2.70;86.70;;;;;;5031198;28;20029;-47
2023/01/22 12:38:02;;;;;;;7.47;4.72;;;2.80;86.50;;;;;;5023970;28;20022;-46
2023/01/22 12:41:04;;;;;;;11.95;4.53;;;2.80;86.40;;;;;;5026014;28;20072;-45
2023/01/22 12:43:47;;;;;;;9.45;4.57;;;2.80;86.30;;;;;;5012762;28;20034;-46
2023/01/22 12:46:41;;;;;;;9.57;5.78;;;2.90;86.20;;;;;;5012987;28;20030;-45
2023/01/22 12:49:26;;;;;;;8.77;4.03;;;2.90;86.40;;;;;;5022400;28;20084;-45
2023/01/22 12:51:54;;;;;;;10.88;4.05;;;2.90;86.40;;;;;;5012724;28;20406;-47
2023/01/22 12:54:29;;;;;;;6.90;4.03;;;2.80;86.20;;;;;;5019723;28;20343;-45
2023/01/22 12:57:16;;;;;;;9.57;4.07;;;2.80;86.20;;;;;;5032597;28;20691;-48
2023/01/22 12:59:47;;;;;;;12.05;4.88;;;2.90;86.50;;;;;;5032378;28;20025;-45
2023/01/22 13:02:37;;;;;;;9.35;4.25;;;2.90;86.40;;;;;;5016951;28;20080;-47
2023/01/22 13:05:24;;;;;;;10.25;4.72;;;2.90;86.20;;;;;;5019555;28;20108;-46
2023/01/22 13:08:06;;;;;;;14.98;6.18;;;2.90;86.10;;;;;;5015198;28;20120;-45
2023/01/22 13:10:38;;;;;;;6.57;4.00;;;2.90;86.10;;;;;;5026263;28;20208;-46
2023/01/22 13:13:34;;;;;;;9.10;4.18;;;3.00;86.50;;;;;;5017101;28;20101;-45
2023/01/22 13:16:25;;;;;;;8.25;3.67;;;3.00;86.40;;;;;;5034507;28;20021;-47
2023/01/22 13:18:54;;;;;;;7.13;4.07;;;3.00;86.00;;;;;;5034054;28;20056;-48
2023/01/22 13:21:29;;;;;;;12.18;4.50;;;3.00;86.10;;;;;;5033732;28;20021;-46
2023/01/22 13:24:10;;;;;;;8.90;4.18;;;3.00;85.90;;;;;;5031660;28;20036;-49
2023/01/22 13:26:38;;;;;;;40.85;21.02;;;3.00;86.00;;;;;;5022722;28;20036;-45
2023/01/22 13:29:31;;;;;;;42.60;24.95;;;2.90;86.20;;;;;;5031267;28;20040;-46
2023/01/22 13:32:18;;;;;;;9.00;6.78;;;2.90;86.30;;;;;;5035844;28;20101;-45